createdAt,value
2022-12-24T00:01:07.548Z,6.70
2022-12-24T00:03:37.351Z,6.70
2022-12-24T00:06:05.515Z,6.70
2022-12-24T00:08:32.227Z,6.70
2022-12-24T00:10:58.585Z,6.70
2022-12-24T00:13:25.392Z,6.70
2022-12-24T00:15:54.715Z,6.70
2022-12-24T00:18:21.006Z,6.70
2022-12-24T00:20:47.634Z,6.70
2022-12-24T00:23:15.536Z,6.60
2022-12-24T00:25:43.088Z,6.60
2022-12-24T00:28:09.962Z,6.60
2022-12-24T00:30:40.060Z,6.60
2022-12-24T00:33:07.059Z,6.60
2022-12-24T00:39:01.820Z,6.60
2022-12-24T00:41:31.918Z,6.60
2022-12-24T00:44:06.009Z,6.60
2022-12-24T00:46:33.717Z,6.60
2022-12-24T00:49:00.862Z,6.60
2022-12-24T00:51:28.082Z,6.60
2022-12-24T00:57:47.992Z,6.60
2022-12-24T01:00:19.274Z,6.60
2022-12-24T01:02:48.746Z,6.60
2022-12-24T01:05:15.123Z,6.60
2022-12-24T01:07:43.649Z,6.60
2022-12-24T01:10:11.178Z,9.00
2022-12-24T01:12:38.779Z,6.60
2022-12-24T01:15:06.339Z,6.60
2022-12-24T01:17:33.629Z,6.60
2022-12-24T01:19:59.795Z,6.70
2022-12-24T01:22:26.235Z,6.70
2022-12-24T01:24:55.332Z,6.70
2022-12-24T01:27:21.598Z,6.70
2022-12-24T01:29:48.497Z,6.70
2022-12-24T01:32:14.934Z,6.70
2022-12-24T01:34:41.144Z,6.60
2022-12-24T01:37:08.441Z,6.60
2022-12-24T01:39:35.833Z,6.60
2022-12-24T01:42:20.741Z,6.60
2022-12-24T01:44:48.561Z,6.60
2022-12-24T01:47:21.370Z,6.60
2022-12-24T01:49:52.285Z,6.60
2022-12-24T01:52:20.786Z,6.50
2022-12-24T01:54:51.851Z,6.50
2022-12-24T01:57:37.901Z,6.60
2022-12-24T02:00:07.346Z,6.50
2022-12-24T02:02:33.972Z,6.50
2022-12-24T02:05:07.581Z,6.50
2022-12-24T02:07:33.902Z,6.50
2022-12-24T02:10:00.916Z,6.50
2022-12-24T02:12:28.128Z,6.50
2022-12-24T02:14:54.270Z,6.50
2022-12-24T02:17:31.806Z,6.50
2022-12-24T02:20:40.226Z,6.50
2022-12-24T02:27:38.951Z,6.50
2022-12-24T02:30:18.167Z,6.50
2022-12-24T02:33:38.778Z,6.50
2022-12-24T02:36:51.078Z,6.50
2022-12-24T02:39:23.468Z,6.50
2022-12-24T02:42:07.700Z,6.50
2022-12-24T02:44:48.766Z,6.50
2022-12-24T02:47:15.132Z,6.50
2022-12-24T02:49:47.076Z,6.50
2022-12-24T02:52:39.332Z,6.50
2022-12-24T02:55:15.975Z,6.60
2022-12-24T02:59:34.817Z,6.50
2022-12-24T03:03:26.286Z,6.60
2022-12-24T03:07:59.166Z,6.60
2022-12-24T03:14:34.955Z,6.60
2022-12-24T03:17:01.893Z,6.60
2022-12-24T03:19:28.504Z,6.70
2022-12-24T03:21:56.366Z,6.70
2022-12-24T03:24:22.546Z,6.70
2022-12-24T03:26:48.789Z,6.70
2022-12-24T03:29:15.947Z,6.80
2022-12-24T03:31:46.888Z,6.80
2022-12-24T03:34:13.513Z,6.80
2022-12-24T03:36:40.295Z,6.90
2022-12-24T03:39:06.499Z,6.90
2022-12-24T03:41:33.170Z,6.90
2022-12-24T03:43:59.336Z,6.90
2022-12-24T03:46:25.800Z,6.90
2022-12-24T03:48:52.243Z,6.90
2022-12-24T03:51:22.898Z,6.90
2022-12-24T03:53:49.053Z,6.90
2022-12-24T03:56:16.136Z,7.00
2022-12-24T03:58:42.312Z,7.00
2022-12-24T04:01:08.558Z,7.00
2022-12-24T04:03:34.919Z,7.00
2022-12-24T04:06:09.351Z,7.00
2022-12-24T04:08:35.566Z,7.00
2022-12-24T04:11:09.345Z,7.00
2022-12-24T04:13:37.311Z,5.10
2022-12-24T04:16:08.634Z,6.90
2022-12-24T04:18:35.960Z,7.00
2022-12-24T04:21:02.245Z,6.90
2022-12-24T04:23:31.173Z,7.00
2022-12-24T04:26:00.278Z,7.10
2022-12-24T04:28:28.135Z,7.10
2022-12-24T04:31:01.453Z,7.30
2022-12-24T04:33:27.577Z,7.40
2022-12-24T04:35:55.337Z,7.50
2022-12-24T04:38:21.589Z,7.60
2022-12-24T04:40:47.990Z,7.70
2022-12-24T04:43:14.432Z,7.80
2022-12-24T04:45:40.827Z,7.80
2022-12-24T04:48:07.027Z,7.90
2022-12-24T04:50:34.217Z,8.00
2022-12-24T04:53:00.566Z,8.10
2022-12-24T04:55:27.996Z,8.10
2022-12-24T04:57:54.244Z,8.10
2022-12-24T05:00:20.648Z,8.10
2022-12-24T05:02:47.415Z,8.20
2022-12-24T05:05:14.066Z,8.20
2022-12-24T05:07:40.280Z,8.20
2022-12-24T05:10:08.090Z,8.20
2022-12-24T05:12:34.489Z,8.20
2022-12-24T05:15:00.691Z,8.30
2022-12-24T05:17:27.245Z,8.20
2022-12-24T05:19:54.401Z,8.30
2022-12-24T05:22:39.174Z,8.30
2022-12-24T05:25:23.885Z,8.30
2022-12-24T05:27:51.724Z,8.30
2022-12-24T05:30:18.217Z,8.30
2022-12-24T05:32:45.362Z,8.30
2022-12-24T05:35:11.505Z,8.40
2022-12-24T05:37:37.813Z,8.40
2022-12-24T05:40:05.183Z,8.50
2022-12-24T05:42:32.445Z,8.50
2022-12-24T05:44:58.635Z,8.60
2022-12-24T05:47:24.906Z,8.60
2022-12-24T05:49:51.200Z,8.70
2022-12-24T05:52:17.379Z,8.70
2022-12-24T05:54:43.754Z,8.70
2022-12-24T05:57:10.929Z,8.70
2022-12-24T05:59:37.098Z,8.70
2022-12-24T06:02:03.519Z,8.70
2022-12-24T06:04:29.913Z,8.70
2022-12-24T06:06:56.306Z,8.70
2022-12-24T06:09:22.957Z,8.70
2022-12-24T06:11:49.302Z,8.70
2022-12-24T06:14:16.443Z,8.70
2022-12-24T06:16:43.191Z,8.70
2022-12-24T06:19:09.328Z,8.70
2022-12-24T06:21:36.609Z,8.70
2022-12-24T06:24:03.229Z,8.70
2022-12-24T06:26:29.637Z,8.70
2022-12-24T06:28:55.973Z,8.70
2022-12-24T06:31:22.812Z,8.70
2022-12-24T06:33:49.573Z,8.70
2022-12-24T06:36:19.166Z,8.60
2022-12-24T06:38:46.347Z,8.60
2022-12-24T06:41:12.550Z,8.60
2022-12-24T06:43:38.903Z,8.70
2022-12-24T06:46:05.587Z,8.60
2022-12-24T06:48:31.897Z,8.60
2022-12-24T06:50:58.253Z,8.60
2022-12-24T06:53:24.585Z,8.60
2022-12-24T06:55:50.750Z,8.70
2022-12-24T06:58:16.937Z,8.60
2022-12-24T07:00:43.271Z,8.70
2022-12-24T07:03:09.478Z,8.60
2022-12-24T07:05:35.654Z,8.70
2022-12-24T07:08:01.862Z,8.70
2022-12-24T07:10:28.041Z,8.70
2022-12-24T07:12:54.518Z,8.70
2022-12-24T07:15:21.769Z,8.70
2022-12-24T07:17:48.217Z,8.70
2022-12-24T07:20:14.436Z,7.10
2022-12-24T07:22:40.620Z,8.60
2022-12-24T07:25:09.050Z,8.70
2022-12-24T07:27:35.365Z,8.70
2022-12-24T07:30:01.835Z,8.70
2022-12-24T07:32:28.639Z,8.70
2022-12-24T07:34:54.841Z,8.70
2022-12-24T07:37:22.412Z,8.70
2022-12-24T07:39:49.048Z,8.70
2022-12-24T07:42:15.711Z,8.70
2022-12-24T07:44:41.891Z,8.70
2022-12-24T07:47:09.711Z,8.70
2022-12-24T07:49:36.026Z,8.50
2022-12-24T07:52:03.163Z,8.70
2022-12-24T07:54:29.311Z,8.70
2022-12-24T07:56:55.629Z,8.70
2022-12-24T07:59:21.878Z,8.70
2022-12-24T08:01:48.470Z,8.70
2022-12-24T08:04:15.298Z,8.70
2022-12-24T08:06:41.645Z,8.70
2022-12-24T08:09:08.091Z,8.70
2022-12-24T08:11:34.280Z,8.70
2022-12-24T08:14:00.463Z,8.70
2022-12-24T08:16:28.259Z,8.70
2022-12-24T08:18:54.592Z,8.70
2022-12-24T08:21:22.406Z,8.80
2022-12-24T08:23:49.141Z,8.80
2022-12-24T08:26:15.574Z,8.80
2022-12-24T08:28:42.495Z,8.80
2022-12-24T08:31:09.701Z,8.80
2022-12-24T08:33:36.179Z,8.80
2022-12-24T08:36:03.233Z,8.90
2022-12-24T08:38:29.484Z,8.90
2022-12-24T08:40:56.201Z,8.90
2022-12-24T08:43:22.672Z,8.90
2022-12-24T08:45:49.238Z,8.90
2022-12-24T08:48:15.636Z,8.90
2022-12-24T08:50:42.350Z,8.80
2022-12-24T08:53:09.261Z,8.80
2022-12-24T08:55:35.821Z,8.80
2022-12-24T08:58:03.164Z,8.70
2022-12-24T09:00:30.429Z,8.70
2022-12-24T09:02:57.408Z,8.80
2022-12-24T09:05:25.241Z,8.70
2022-12-24T09:07:52.089Z,8.80
2022-12-24T09:10:19.861Z,8.80
2022-12-24T09:12:46.179Z,8.80
2022-12-24T09:15:14.785Z,8.70
2022-12-24T09:17:41.155Z,8.70
2022-12-24T09:20:08.941Z,8.70
2022-12-24T09:22:37.740Z,8.60
2022-12-24T09:25:09.787Z,8.60
2022-12-24T09:27:36.519Z,8.60
2022-12-24T09:30:04.389Z,8.60
2022-12-24T09:32:30.939Z,8.60
2022-12-24T09:34:57.402Z,8.60
2022-12-24T09:37:24.123Z,8.70
2022-12-24T09:39:50.258Z,8.70
2022-12-24T09:42:28.924Z,8.80
2022-12-24T09:45:13.301Z,8.90
2022-12-24T09:47:46.141Z,9.00
2022-12-24T09:50:27.987Z,9.10
2022-12-24T09:52:54.619Z,9.10
2022-12-24T09:55:27.992Z,9.10
2022-12-24T09:57:54.858Z,10.60
2022-12-24T10:00:31.331Z,9.10
2022-12-24T10:02:58.152Z,9.10
2022-12-24T10:05:38.461Z,8.90
2022-12-24T10:08:32.745Z,8.90
2022-12-24T10:11:30.477Z,8.80
2022-12-24T10:15:31.168Z,8.80
2022-12-24T10:19:55.281Z,8.70
2022-12-24T10:29:22.718Z,8.50
2022-12-24T10:32:51.164Z,8.50
2022-12-24T10:35:36.239Z,8.50
2022-12-24T10:38:03.863Z,8.60
2022-12-24T10:40:44.642Z,8.60
2022-12-24T10:43:17.866Z,8.60
2022-12-24T10:45:48.865Z,8.60
2022-12-24T10:48:45.001Z,8.50
2022-12-24T10:52:56.828Z,8.50
2022-12-24T10:55:27.532Z,8.40
2022-12-24T10:58:05.787Z,8.30
2022-12-24T11:00:36.364Z,8.20
2022-12-24T11:04:05.523Z,8.20
2022-12-24T11:06:32.177Z,8.20
2022-12-24T11:09:19.624Z,8.10
2022-12-24T11:11:46.372Z,8.10
2022-12-24T11:17:42.266Z,8.10
2022-12-24T11:20:19.265Z,8.20
2022-12-24T11:22:48.955Z,8.10
2022-12-24T11:25:28.829Z,8.10
2022-12-24T11:28:01.925Z,8.00
2022-12-24T11:30:35.889Z,8.00
2022-12-24T11:33:23.950Z,6.20
2022-12-24T11:36:06.355Z,8.00
2022-12-24T11:42:02.959Z,8.00
2022-12-24T11:44:31.268Z,8.00
2022-12-24T11:46:58.557Z,8.00
2022-12-24T11:49:34.662Z,8.00
2022-12-24T11:52:26.759Z,8.10
2022-12-24T11:55:43.039Z,8.10
2022-12-24T11:58:37.010Z,10.40
2022-12-24T12:04:46.429Z,8.20
2022-12-24T12:07:24.564Z,8.20
2022-12-24T12:10:28.957Z,8.20
2022-12-24T12:17:07.370Z,8.20
2022-12-24T12:19:45.498Z,8.20
2022-12-24T12:22:22.849Z,8.30
2022-12-24T12:24:51.479Z,8.30
2022-12-24T12:27:39.274Z,8.30
2022-12-24T12:30:11.491Z,8.40
2022-12-24T12:32:58.995Z,8.40
2022-12-24T12:35:40.354Z,8.50
2022-12-24T12:38:24.435Z,8.50
2022-12-24T12:43:49.795Z,8.50
2022-12-24T12:47:56.022Z,8.60
2022-12-24T12:51:47.876Z,8.70
2022-12-24T12:56:01.878Z,8.80
2022-12-24T12:58:37.968Z,9.00
2022-12-24T13:01:36.787Z,9.10
2022-12-24T13:05:45.990Z,9.20
2022-12-24T13:13:57.525Z,9.30
2022-12-24T13:16:59.644Z,9.20
2022-12-24T13:19:57.627Z,8.50
2022-12-24T13:22:24.164Z,9.10
2022-12-24T13:24:52.646Z,9.10
2022-12-24T13:27:30.773Z,9.10
2022-12-24T13:30:04.949Z,8.90
2022-12-24T13:32:41.358Z,8.80
2022-12-24T13:37:03.496Z,8.80
2022-12-24T13:40:54.195Z,8.70
2022-12-24T13:43:21.908Z,8.70
2022-12-24T13:45:50.134Z,8.60
2022-12-24T13:48:28.677Z,8.60
2022-12-24T13:50:56.206Z,8.70
2022-12-24T13:53:43.242Z,8.70
2022-12-24T13:56:27.349Z,8.70
2022-12-24T13:59:12.231Z,8.70
2022-12-24T14:01:42.246Z,8.70
2022-12-24T14:04:08.913Z,8.60
2022-12-24T14:06:37.365Z,8.70
2022-12-24T14:09:13.594Z,8.70
2022-12-24T14:12:24.412Z,8.70
2022-12-24T14:14:54.392Z,8.70
2022-12-24T14:17:23.481Z,8.70
2022-12-24T14:19:52.459Z,8.80
2022-12-24T14:22:44.509Z,8.80
2022-12-24T14:25:16.835Z,8.80
2022-12-24T14:27:46.307Z,8.90
2022-12-24T14:30:20.089Z,8.90
2022-12-24T14:32:47.896Z,8.80
2022-12-24T14:35:24.047Z,8.70
2022-12-24T14:38:01.938Z,8.50
2022-12-24T14:40:30.429Z,8.40
2022-12-24T14:46:09.302Z,8.30
2022-12-24T14:48:51.564Z,8.20
2022-12-24T14:53:08.192Z,8.00
2022-12-24T14:55:45.315Z,7.90
2022-12-24T14:58:30.764Z,7.80
2022-12-24T15:01:02.920Z,7.70
2022-12-24T15:03:38.868Z,10.40
2022-12-24T15:06:08.607Z,7.80
2022-12-24T15:08:46.851Z,7.90
2022-12-24T15:11:19.040Z,7.90
2022-12-24T15:13:49.671Z,8.00
2022-12-24T15:16:32.839Z,8.10
2022-12-24T15:19:01.746Z,8.00
2022-12-24T15:21:41.813Z,7.90
2022-12-24T15:25:31.592Z,7.90
2022-12-24T15:27:58.018Z,7.90
2022-12-24T15:30:27.161Z,7.80
2022-12-24T15:32:55.053Z,10.20
2022-12-24T15:35:34.487Z,7.70
2022-12-24T15:38:02.773Z,7.60
2022-12-24T15:40:29.230Z,7.50
2022-12-24T15:42:56.369Z,7.40
2022-12-24T15:45:28.884Z,7.40
2022-12-24T15:48:00.668Z,7.40
2022-12-24T15:50:31.819Z,10.20
2022-12-24T15:53:20.944Z,7.50
2022-12-24T15:56:15.783Z,8.30
2022-12-24T15:58:46.531Z,7.50
2022-12-24T16:01:33.925Z,7.50
2022-12-24T16:04:00.748Z,7.50
2022-12-24T16:06:28.488Z,7.50
2022-12-24T16:08:56.627Z,7.50
2022-12-24T16:11:33.395Z,7.50
2022-12-24T16:14:13.803Z,7.80
2022-12-24T16:16:46.263Z,7.30
2022-12-24T16:19:22.628Z,7.10
2022-12-24T16:21:53.916Z,6.90
2022-12-24T16:24:22.654Z,6.90
2022-12-24T16:26:49.385Z,6.80
2022-12-24T16:29:16.017Z,6.70
2022-12-24T16:31:53.412Z,6.70
2022-12-24T16:34:22.816Z,6.60
2022-12-24T16:36:49.470Z,6.70
2022-12-24T16:39:23.936Z,6.60
2022-12-24T16:42:12.791Z,6.50
2022-12-24T16:44:40.647Z,6.40
2022-12-24T16:47:20.754Z,6.60
2022-12-24T16:49:48.246Z,6.70
2022-12-24T16:52:21.923Z,6.80
2022-12-24T16:54:51.045Z,6.90
2022-12-24T16:57:18.052Z,7.00
2022-12-24T16:59:44.927Z,7.10
2022-12-24T17:02:16.145Z,7.20
2022-12-24T17:04:43.086Z,7.30
2022-12-24T17:07:13.141Z,7.30
2022-12-24T17:09:39.945Z,7.20
2022-12-24T17:12:06.590Z,7.20
2022-12-24T17:14:33.184Z,7.10
2022-12-24T17:16:59.506Z,7.10
2022-12-24T17:19:26.055Z,7.00
2022-12-24T17:21:52.295Z,7.00
2022-12-24T17:24:18.741Z,6.90
2022-12-24T17:26:44.963Z,6.90
2022-12-24T17:29:11.394Z,6.80
2022-12-24T17:31:39.234Z,6.80
2022-12-24T17:34:08.050Z,6.70
2022-12-24T17:36:34.478Z,6.70
2022-12-24T17:39:00.934Z,6.70
2022-12-24T17:41:27.875Z,6.60
2022-12-24T17:43:54.494Z,3.80
2022-12-24T17:46:21.850Z,6.90
2022-12-24T17:48:49.141Z,6.90
2022-12-24T17:51:18.127Z,6.90
2022-12-24T17:53:44.751Z,7.00
2022-12-24T17:56:12.038Z,5.10
2022-12-24T17:58:42.289Z,7.10
2022-12-24T18:01:18.638Z,7.10
2022-12-24T18:03:45.374Z,7.10
2022-12-24T18:06:12.635Z,7.20
2022-12-24T18:08:39.197Z,7.30
2022-12-24T18:12:06.596Z,7.40
2022-12-24T18:14:32.878Z,7.40
2022-12-24T18:16:59.192Z,9.20
2022-12-24T18:19:25.500Z,7.50
2022-12-24T18:21:51.753Z,7.50
2022-12-24T18:24:18.776Z,7.40
2022-12-24T18:26:45.664Z,7.50
2022-12-24T18:29:13.081Z,7.40
2022-12-24T18:31:39.635Z,7.30
2022-12-24T18:34:07.734Z,7.30
2022-12-24T18:36:35.285Z,7.20
2022-12-24T18:39:01.464Z,7.10
2022-12-24T18:41:28.958Z,7.10
2022-12-24T18:43:56.314Z,7.10
2022-12-24T18:46:24.449Z,7.10
2022-12-24T18:48:51.442Z,7.10
2022-12-24T18:51:18.857Z,7.00
2022-12-24T18:53:45.336Z,6.90
2022-12-24T18:56:16.304Z,6.90
2022-12-24T18:58:43.015Z,6.80
2022-12-24T19:01:14.230Z,6.80
2022-12-24T19:03:41.703Z,6.70
2022-12-24T19:06:08.482Z,6.70
2022-12-24T19:11:32.654Z,6.80
2022-12-24T19:13:59.790Z,6.80
2022-12-24T19:16:27.901Z,6.80
2022-12-24T19:18:54.313Z,6.70
2022-12-24T19:21:20.827Z,6.70
2022-12-24T19:23:51.009Z,6.70
2022-12-24T19:26:18.314Z,6.60
2022-12-24T19:28:44.866Z,6.60
2022-12-24T19:31:16.734Z,6.60
2022-12-24T19:33:44.973Z,6.60
2022-12-24T19:36:16.372Z,6.60
2022-12-24T19:38:43.682Z,6.60
2022-12-24T19:41:27.929Z,6.60
2022-12-24T19:43:56.328Z,6.60
2022-12-24T19:46:25.327Z,6.60
2022-12-24T19:48:54.105Z,6.60
2022-12-24T19:51:21.601Z,6.50
2022-12-24T19:53:49.197Z,6.40
2022-12-24T19:56:17.017Z,6.40
2022-12-24T19:58:44.428Z,6.30
2022-12-24T20:01:18.981Z,6.30
2022-12-24T20:03:47.364Z,6.40
2022-12-24T20:06:14.378Z,6.30
2022-12-24T20:08:40.886Z,6.40
2022-12-24T20:11:09.692Z,6.40
2022-12-24T20:13:36.687Z,6.40
2022-12-24T20:16:11.971Z,6.40
2022-12-24T20:18:38.806Z,6.40
2022-12-24T20:21:09.691Z,6.40
2022-12-24T20:23:39.887Z,6.50
2022-12-24T20:26:08.902Z,6.50
2022-12-24T20:28:36.412Z,6.50
2022-12-24T20:31:12.501Z,6.60
2022-12-24T20:33:39.446Z,6.70
2022-12-24T20:36:08.166Z,6.70
2022-12-24T20:38:37.023Z,6.80
2022-12-24T20:41:04.958Z,6.80
2022-12-24T20:43:36.297Z,6.80
2022-12-24T20:46:06.251Z,6.70
2022-12-24T20:48:33.573Z,6.80
2022-12-24T20:51:04.031Z,6.90
2022-12-24T20:53:31.869Z,6.90
2022-12-24T20:55:58.618Z,6.90
2022-12-24T20:58:25.412Z,6.90
2022-12-24T21:00:54.009Z,6.90
2022-12-24T21:03:21.444Z,6.90
2022-12-24T21:05:48.158Z,7.00
2022-12-24T21:08:15.574Z,7.00
2022-12-24T21:10:42.736Z,6.90
2022-12-24T21:13:11.823Z,6.90
2022-12-24T21:15:40.623Z,6.80
2022-12-24T21:18:12.477Z,6.70
2022-12-24T21:20:40.150Z,6.70
2022-12-24T21:23:07.754Z,6.60
2022-12-24T21:25:35.731Z,6.60
2022-12-24T21:28:02.701Z,6.40
2022-12-24T21:30:31.975Z,6.40
2022-12-24T21:32:59.197Z,6.20
2022-12-24T21:35:28.458Z,6.10
2022-12-24T21:38:05.125Z,6.00
2022-12-24T21:40:31.966Z,5.80
2022-12-24T21:42:58.978Z,5.70
2022-12-24T21:45:25.850Z,5.70
2022-12-24T21:47:52.591Z,5.60
2022-12-24T21:50:38.076Z,5.70
2022-12-24T21:53:23.568Z,5.70
2022-12-24T21:55:52.875Z,5.60
2022-12-24T21:58:20.029Z,5.70
2022-12-24T22:00:47.080Z,5.70
2022-12-24T22:03:15.521Z,5.70
2022-12-24T22:05:42.590Z,5.70
2022-12-24T22:08:29.584Z,5.70
2022-12-24T22:11:53.562Z,5.70
2022-12-24T22:14:22.294Z,5.70
2022-12-24T22:16:50.451Z,5.70
2022-12-24T22:19:18.414Z,5.70
2022-12-24T22:21:46.511Z,5.20
2022-12-24T22:24:16.680Z,5.70
2022-12-24T22:26:44.672Z,6.30
2022-12-24T22:29:12.643Z,5.70
2022-12-24T22:31:40.377Z,5.70
2022-12-24T22:34:08.248Z,5.70
2022-12-24T22:36:44.722Z,4.50
2022-12-24T22:39:12.384Z,5.60
2022-12-24T22:41:39.642Z,5.60
2022-12-24T22:44:06.293Z,5.50
2022-12-24T22:46:33.137Z,5.40
2022-12-24T22:48:59.582Z,5.40
2022-12-24T22:51:26.704Z,5.40
2022-12-24T22:53:54.258Z,5.40
2022-12-24T22:56:21.755Z,5.30
2022-12-24T22:58:53.702Z,5.20
2022-12-24T23:01:32.013Z,5.10
2022-12-24T23:03:59.292Z,4.90
2022-12-24T23:06:27.317Z,4.80
2022-12-24T23:08:54.152Z,4.70
2022-12-24T23:11:21.608Z,4.50
2022-12-24T23:14:07.052Z,4.50
2022-12-24T23:16:33.712Z,4.40
2022-12-24T23:19:01.246Z,4.40
2022-12-24T23:21:27.518Z,4.30
2022-12-24T23:23:55.382Z,4.30
2022-12-24T23:26:21.792Z,4.30
2022-12-24T23:28:49.561Z,4.30
2022-12-24T23:31:16.296Z,4.30
2022-12-24T23:33:42.839Z,4.20
2022-12-24T23:36:09.483Z,4.20
2022-12-24T23:38:35.848Z,4.00
2022-12-24T23:41:04.894Z,4.10
2022-12-24T23:43:31.183Z,4.20
2022-12-24T23:45:58.383Z,4.20
2022-12-24T23:48:25.065Z,4.40
2022-12-24T23:50:51.689Z,4.40
2022-12-24T23:53:19.416Z,4.50
2022-12-24T23:55:46.343Z,3.10
2022-12-24T23:58:14.236Z,4.60
